Avon, MT

5:03 PM MDT on March 30, 2015 (GMT -0600)
MesoWest | | Change Station
CLOSE
Current Station
Personal Weather Station
Location: Avon, MT
Elevation: 5084 ft
Nearby Weather Stations

Elev 5084 ft 46.70 °N, 112.66 °W | Updated 34 minutes ago

Clear
Clear
63 °F
Feels Like 63 °F
N
13
Wind Variable Wind from West
Gusts 21.0 mph

Today
High -- | Low -- °F
--% Chance of Precip.
Yesterday
High -- | Low -- °F
Precip. -- in
7:14 AM 7:57 PM
Waxing Gibbous, 82% visible
Pressure 29.97 in
Visibility 10.0 miles
Clouds Clear
Dew Point 23 °F
Humidity 21%
Rainfall in
Snow Depth Not available.
UV 3 out of 12
Pollen 9.10 out of 12
Air Quality Not available.
Flu Activity Not available.
METAR KHLN 302253Z 09007KT 10SM CLR 21/M02 A2997 RMK AO2 SLP148 T02061022

More Conditions Fewer Conditions

Pressure 29.97 in
Visibility 10.0 miles
Clouds Clear
Dew Point 23 °F
Humidity 21%
Rainfall in
Snow Depth Not available.
UV 3 out of 12
Pollen 9.10 out of 12
Air Quality Not available.
Flu Activity Not available.
METAR KHLN 302253Z 09007KT 10SM CLR 21/M02 A2997 RMK AO2 SLP148 T02061022

More Conditions Fewer Conditions

10-Day Weather Forecast

Almanac

Astronomy

Mar. 30, 2015 Rise Set
Actual Time
Civil Twilight
Nautical Twilight
Astronomical Twilight
Moon
Length of Visible Light
Length of Day
Tomorrow will be .
, % of the Moon is Illuminated

Today's Extremes

State Highs State Lows

Community

WunderPhotos

Upload Photos

1,809,617 photos uploaded!

WunderBlogs® & News

Nearby

Air Quality

  Air Quality AQ Index Pollutant
Not available.

Snow Depth

Station Depth Elevation

Earthquake Activity

City Distance Mag. Time & Date
Minimum magnitude displayed is 2.5.

Coastal Water Temperatures

Place Temperature

Stations

Nearby Weather Stations

Station Location Temp. Windchill Dew Point Humidity Wind Precip. Elev Updated Type